createdAt,value
2023-12-19T00:00:51.739Z,93.21
2023-12-19T00:10:55.025Z,92.21
2023-12-19T00:21:00.559Z,93.04
2023-12-19T00:31:04.541Z,93.52
2023-12-19T00:41:08.738Z,94.03
2023-12-19T00:51:12.299Z,93.68
2023-12-19T01:01:16.611Z,98.92
2023-12-19T01:11:19.649Z,100.00
2023-12-19T01:21:24.555Z,100.00
2023-12-19T01:31:27.658Z,100.00
2023-12-19T01:41:32.627Z,100.00
2023-12-19T01:51:36.659Z,100.00
2023-12-19T02:01:41.622Z,100.00
2023-12-19T02:11:44.662Z,100.00
2023-12-19T02:21:48.919Z,100.00
2023-12-19T02:31:53.354Z,100.00
2023-12-19T02:41:56.124Z,100.00
2023-12-19T02:52:00.519Z,100.00
2023-12-19T03:02:03.655Z,100.00
2023-12-19T03:12:09.336Z,100.00
2023-12-19T03:22:12.319Z,100.00
2023-12-19T03:32:16.484Z,100.00
2023-12-19T03:42:19.585Z,100.00
2023-12-19T03:52:24.903Z,100.00
2023-12-19T04:02:27.757Z,100.00
2023-12-19T04:12:32.413Z,100.00
2023-12-19T04:22:35.406Z,100.00
2023-12-19T04:32:40.140Z,100.00
2023-12-19T04:42:43.678Z,100.00
2023-12-19T04:52:48.136Z,100.00
2023-12-19T05:02:52.435Z,100.00
2023-12-19T05:12:56.578Z,100.00
2023-12-19T05:22:59.933Z,100.00
2023-12-19T05:33:04.888Z,100.00
2023-12-19T05:43:07.781Z,100.00
2023-12-19T05:53:12.118Z,100.00
2023-12-19T06:03:14.890Z,100.00
2023-12-19T06:13:20.366Z,100.00
2023-12-19T06:23:23.550Z,100.00
2023-12-19T06:33:27.841Z,100.00
2023-12-19T06:43:30.692Z,100.00
2023-12-19T06:53:34.833Z,100.00
2023-12-19T07:03:37.592Z,100.00
2023-12-19T07:13:42.088Z,100.00
2023-12-19T07:23:44.897Z,100.00
2023-12-19T07:33:49.199Z,100.00
2023-12-19T07:43:52.148Z,100.00
2023-12-19T07:53:56.917Z,100.00
2023-12-19T08:04:00.354Z,100.00
2023-12-19T08:14:04.569Z,100.00
2023-12-19T08:24:07.813Z,100.00
2023-12-19T08:34:12.414Z,100.00
2023-12-19T08:44:15.582Z,100.00
2023-12-19T08:54:19.889Z,100.00
2023-12-19T09:04:23.384Z,100.00
2023-12-19T09:14:27.581Z,100.00
2023-12-19T09:24:32.095Z,100.00
2023-12-19T09:34:36.861Z,100.00
2023-12-19T09:44:41.346Z,100.00
2023-12-19T09:54:45.960Z,100.00
2023-12-19T10:04:49.662Z,100.00
2023-12-19T10:14:53.777Z,100.00
2023-12-19T10:25:02.224Z,100.00
2023-12-19T10:35:07.838Z,100.00
2023-12-19T10:45:11.284Z,100.00
2023-12-19T10:55:23.825Z,100.00
2023-12-19T11:05:32.416Z,100.00
2023-12-19T11:15:40.873Z,100.00
2023-12-19T11:25:48.040Z,100.00
2023-12-19T11:35:53.100Z,100.00
2023-12-19T11:45:56.170Z,100.00
2023-12-19T11:56:09.713Z,100.00
2023-12-19T12:06:13.602Z,100.00
2023-12-19T12:16:17.901Z,100.00
2023-12-19T12:26:22.863Z,100.00
2023-12-19T12:36:29.548Z,100.00
2023-12-19T12:46:32.577Z,100.00
2023-12-19T12:56:38.643Z,100.00
2023-12-19T13:06:44.373Z,100.00
2023-12-19T13:16:49.917Z,100.00
2023-12-19T13:26:52.671Z,100.00
2023-12-19T13:36:56.979Z,100.00
2023-12-19T13:46:59.900Z,100.00
2023-12-19T13:57:04.281Z,100.00
2023-12-19T14:07:09.148Z,100.00
2023-12-19T14:17:14.065Z,100.00
2023-12-19T14:27:17.006Z,100.00
2023-12-19T14:37:21.172Z,100.00
2023-12-19T14:47:25.340Z,100.00
2023-12-19T14:57:29.779Z,100.00
2023-12-19T15:07:32.715Z,100.00
2023-12-19T15:17:37.066Z,100.00
2023-12-19T15:27:39.921Z,100.00
2023-12-19T15:37:44.361Z,100.00
2023-12-19T15:47:47.274Z,100.00
2023-12-19T15:57:52.383Z,100.00
2023-12-19T16:07:55.273Z,100.00
2023-12-19T16:17:59.422Z,100.00
2023-12-19T16:28:02.450Z,100.00
2023-12-19T16:38:07.124Z,100.00
2023-12-19T16:48:10.476Z,100.00
2023-12-19T16:58:14.848Z,100.00
2023-12-19T17:08:17.734Z,100.00
2023-12-19T17:18:23.330Z,100.00
2023-12-19T17:28:26.428Z,100.00
2023-12-19T17:38:30.685Z,100.00
2023-12-19T17:48:33.503Z,100.00
2023-12-19T17:58:38.544Z,100.00
2023-12-19T18:08:42.957Z,100.00
2023-12-19T18:18:55.486Z,100.00
2023-12-19T18:28:58.439Z,100.00
2023-12-19T18:39:02.667Z,100.00
2023-12-19T18:49:05.666Z,100.00
2023-12-19T18:59:12.394Z,100.00
2023-12-19T19:09:15.429Z,100.00
2023-12-19T19:19:19.649Z,100.00
2023-12-19T19:29:22.849Z,100.00
2023-12-19T19:39:29.288Z,100.00
2023-12-19T19:49:43.344Z,100.00
2023-12-19T19:59:54.656Z,100.00
2023-12-19T20:09:57.828Z,100.00
2023-12-19T20:20:03.789Z,100.00
2023-12-19T20:30:08.374Z,100.00
2023-12-19T20:40:14.255Z,100.00
2023-12-19T20:50:17.374Z,100.00
2023-12-19T21:00:24.249Z,100.00
2023-12-19T21:10:28.348Z,100.00
2023-12-19T21:20:32.717Z,100.00
2023-12-19T21:30:35.866Z,100.00
2023-12-19T21:40:40.903Z,100.00
2023-12-19T21:50:46.269Z,100.00
2023-12-19T22:00:50.701Z,100.00
2023-12-19T22:10:53.852Z,100.00
2023-12-19T22:20:59.565Z,100.00
2023-12-19T22:31:03.073Z,100.00
2023-12-19T22:41:08.556Z,100.00
2023-12-19T22:51:11.525Z,100.00
2023-12-19T23:01:21.252Z,100.00
2023-12-19T23:11:24.872Z,100.00
2023-12-19T23:21:29.734Z,100.00
2023-12-19T23:31:39.350Z,100.00
2023-12-19T23:41:46.042Z,100.00
2023-12-19T23:51:49.457Z,100.00
